sensor_id;sensor_type;location;lat;lon;timestamp;pressure;altitude;pressure_sealevel;temperature;humidity
59103;BME280;43999;51.660;5.616;2023-06-14T00:02:02;101218.13;;;19.45;45.10
59103;BME280;43999;51.660;5.616;2023-06-14T00:04:30;101229.13;;;19.40;44.63
59103;BME280;43999;51.660;5.616;2023-06-14T00:06:58;101225.06;;;19.36;44.35
59103;BME280;43999;51.660;5.616;2023-06-14T00:09:25;101235.81;;;19.34;43.59
59103;BME280;43999;51.660;5.616;2023-06-14T00:11:52;101224.75;;;19.29;43.47
59103;BME280;43999;51.660;5.616;2023-06-14T00:14:20;101231.16;;;19.27;43.73
59103;BME280;43999;51.660;5.616;2023-06-14T00:16:47;101225.25;;;19.23;43.69
59103;BME280;43999;51.660;5.616;2023-06-14T00:19:15;101223.13;;;19.17;43.55
59103;BME280;43999;51.660;5.616;2023-06-14T00:21:43;101219.75;;;19.15;43.28
59103;BME280;43999;51.660;5.616;2023-06-14T00:24:10;101224.47;;;19.11;43.83
59103;BME280;43999;51.660;5.616;2023-06-14T00:26:38;101231.72;;;19.09;42.82
59103;BME280;43999;51.660;5.616;2023-06-14T00:29:05;101227.19;;;19.00;43.26
59103;BME280;43999;51.660;5.616;2023-06-14T00:31:32;101228.16;;;18.99;43.29
59103;BME280;43999;51.660;5.616;2023-06-14T00:34:00;101237.25;;;18.96;43.39
59103;BME280;43999;51.660;5.616;2023-06-14T00:36:28;101227.00;;;18.92;43.10
59103;BME280;43999;51.660;5.616;2023-06-14T00:38:55;101222.91;;;18.88;43.45
59103;BME280;43999;51.660;5.616;2023-06-14T00:41:23;101225.06;;;18.83;43.53
59103;BME280;43999;51.660;5.616;2023-06-14T00:43:51;101231.34;;;18.81;43.02
59103;BME280;43999;51.660;5.616;2023-06-14T00:46:19;101230.75;;;18.78;43.76
59103;BME280;43999;51.660;5.616;2023-06-14T00:48:48;101236.31;;;18.75;43.70
59103;BME280;43999;51.660;5.616;2023-06-14T00:51:16;101229.00;;;18.67;43.63
59103;BME280;43999;51.660;5.616;2023-06-14T00:53:44;101231.66;;;18.67;43.72
59103;BME280;43999;51.660;5.616;2023-06-14T00:56:14;101221.78;;;18.58;43.84
59103;BME280;43999;51.660;5.616;2023-06-14T00:58:43;101221.03;;;18.56;43.67
59103;BME280;43999;51.660;5.616;2023-06-14T01:01:10;101223.69;;;18.56;43.97
59103;BME280;43999;51.660;5.616;2023-06-14T01:03:38;101228.31;;;18.54;44.26
59103;BME280;43999;51.660;5.616;2023-06-14T01:06:31;101227.59;;;18.52;44.31
59103;BME280;43999;51.660;5.616;2023-06-14T01:09:26;101233.03;;;18.50;43.86
59103;BME280;43999;51.660;5.616;2023-06-14T01:12:29;101228.91;;;18.46;44.38
59103;BME280;43999;51.660;5.616;2023-06-14T01:15:04;101229.03;;;18.44;44.30
59103;BME280;43999;51.660;5.616;2023-06-14T01:17:33;101226.50;;;18.43;44.19
59103;BME280;43999;51.660;5.616;2023-06-14T01:20:02;101229.41;;;18.40;44.59
59103;BME280;43999;51.660;5.616;2023-06-14T01:22:33;101225.09;;;18.39;44.19
59103;BME280;43999;51.660;5.616;2023-06-14T01:25:01;101226.06;;;18.38;44.84
59103;BME280;43999;51.660;5.616;2023-06-14T01:27:28;101229.09;;;18.33;44.83
59103;BME280;43999;51.660;5.616;2023-06-14T01:29:56;101240.53;;;18.34;45.22
59103;BME280;43999;51.660;5.616;2023-06-14T01:32:28;101239.94;;;18.30;44.85
59103;BME280;43999;51.660;5.616;2023-06-14T01:34:56;101234.03;;;18.26;44.77
59103;BME280;43999;51.660;5.616;2023-06-14T01:37:28;101237.78;;;18.24;44.60
59103;BME280;43999;51.660;5.616;2023-06-14T01:39:56;101240.56;;;18.22;44.49
59103;BME280;43999;51.660;5.616;2023-06-14T01:42:25;101236.44;;;18.18;45.31
59103;BME280;43999;51.660;5.616;2023-06-14T01:44:54;101244.53;;;18.17;45.27
59103;BME280;43999;51.660;5.616;2023-06-14T01:47:23;101242.13;;;18.14;45.68
59103;BME280;43999;51.660;5.616;2023-06-14T01:49:51;101242.25;;;18.12;45.92
59103;BME280;43999;51.660;5.616;2023-06-14T01:52:19;101236.34;;;18.08;45.38
59103;BME280;43999;51.660;5.616;2023-06-14T01:54:52;101233.47;;;18.00;45.78
59103;BME280;43999;51.660;5.616;2023-06-14T01:57:19;101241.19;;;18.03;45.78
59103;BME280;43999;51.660;5.616;2023-06-14T01:59:47;101234.41;;;17.99;46.15
59103;BME280;43999;51.660;5.616;2023-06-14T02:02:15;101240.09;;;17.95;45.77
59103;BME280;43999;51.660;5.616;2023-06-14T02:04:43;101236.84;;;17.91;46.42
59103;BME280;43999;51.660;5.616;2023-06-14T02:07:11;101234.41;;;17.88;46.41
59103;BME280;43999;51.660;5.616;2023-06-14T02:09:41;101232.00;;;17.85;46.04
59103;BME280;43999;51.660;5.616;2023-06-14T02:12:09;101233.06;;;17.82;46.84
59103;BME280;43999;51.660;5.616;2023-06-14T02:14:37;101230.66;;;17.79;46.67
59103;BME280;43999;51.660;5.616;2023-06-14T02:17:05;101221.25;;;17.75;46.98
59103;BME280;43999;51.660;5.616;2023-06-14T02:19:33;101234.75;;;17.72;47.16
59103;BME280;43999;51.660;5.616;2023-06-14T02:22:02;101233.06;;;17.71;47.56
59103;BME280;43999;51.660;5.616;2023-06-14T02:24:30;101232.56;;;17.66;47.47
59103;BME280;43999;51.660;5.616;2023-06-14T02:26:58;101232.81;;;17.63;47.18
59103;BME280;43999;51.660;5.616;2023-06-14T02:29:27;101234.84;;;17.59;47.56
59103;BME280;43999;51.660;5.616;2023-06-14T02:31:54;101240.41;;;17.56;47.94
59103;BME280;43999;51.660;5.616;2023-06-14T02:34:21;101239.56;;;17.55;47.65
59103;BME280;43999;51.660;5.616;2023-06-14T02:36:49;101240.75;;;17.51;47.92
59103;BME280;43999;51.660;5.616;2023-06-14T02:39:16;101240.97;;;17.48;48.12
59103;BME280;43999;51.660;5.616;2023-06-14T02:41:44;101241.22;;;17.45;47.90
59103;BME280;43999;51.660;5.616;2023-06-14T02:44:14;101242.41;;;17.41;48.31
59103;BME280;43999;51.660;5.616;2023-06-14T02:46:42;101246.03;;;17.40;49.19
59103;BME280;43999;51.660;5.616;2023-06-14T02:49:11;101244.56;;;17.36;49.10
59103;BME280;43999;51.660;5.616;2023-06-14T02:51:39;101241.31;;;17.32;48.96
59103;BME280;43999;51.660;5.616;2023-06-14T02:54:07;101242.50;;;17.28;49.78
59103;BME280;43999;51.660;5.616;2023-06-14T02:56:34;101249.84;;;17.25;49.16
59103;BME280;43999;51.660;5.616;2023-06-14T02:59:02;101245.50;;;17.24;49.67
59103;BME280;43999;51.660;5.616;2023-06-14T03:01:31;101250.19;;;17.20;49.58
59103;BME280;43999;51.660;5.616;2023-06-14T03:04:08;101248.72;;;17.16;50.30
59103;BME280;43999;51.660;5.616;2023-06-14T03:06:39;101249.94;;;17.12;50.19
59103;BME280;43999;51.660;5.616;2023-06-14T03:09:07;101258.94;;;17.09;50.11
59103;BME280;43999;51.660;5.616;2023-06-14T03:11:38;101255.69;;;17.06;50.52
59103;BME280;43999;51.660;5.616;2023-06-14T03:14:05;101255.91;;;17.02;50.75
59103;BME280;43999;51.660;5.616;2023-06-14T03:16:35;101265.75;;;17.00;50.50
59103;BME280;43999;51.660;5.616;2023-06-14T03:19:04;101255.50;;;16.96;51.29
59103;BME280;43999;51.660;5.616;2023-06-14T03:21:32;101254.19;;;16.90;51.16
59103;BME280;43999;51.660;5.616;2023-06-14T03:24:03;101268.38;;;16.89;51.46
59103;BME280;43999;51.660;5.616;2023-06-14T03:26:32;101268.47;;;16.88;51.50
59103;BME280;43999;51.660;5.616;2023-06-14T03:29:01;101267.72;;;16.85;51.97
59103;BME280;43999;51.660;5.616;2023-06-14T03:31:29;101264.56;;;16.80;52.24
59103;BME280;43999;51.660;5.616;2023-06-14T03:34:02;101270.72;;;16.81;51.97
59103;BME280;43999;51.660;5.616;2023-06-14T03:36:29;101277.06;;;16.78;52.03
59103;BME280;43999;51.660;5.616;2023-06-14T03:38:57;101272.00;;;16.75;52.48
59103;BME280;43999;51.660;5.616;2023-06-14T03:41:24;101275.59;;;16.74;52.59
59103;BME280;43999;51.660;5.616;2023-06-14T03:43:53;101278.34;;;16.73;52.76
59103;BME280;43999;51.660;5.616;2023-06-14T03:46:21;101275.81;;;16.71;52.98
59103;BME280;43999;51.660;5.616;2023-06-14T03:48:48;101287.38;;;16.70;53.10
59103;BME280;43999;51.660;5.616;2023-06-14T03:51:17;101283.13;;;16.67;53.51
59103;BME280;43999;51.660;5.616;2023-06-14T03:53:45;101281.44;;;16.66;53.61
59103;BME280;43999;51.660;5.616;2023-06-14T03:56:33;101286.00;;;16.64;53.80
59103;BME280;43999;51.660;5.616;2023-06-14T03:59:06;101277.47;;;16.61;53.48
59103;BME280;43999;51.660;5.616;2023-06-14T04:01:33;101287.81;;;16.64;53.95
59103;BME280;43999;51.660;5.616;2023-06-14T04:04:00;101283.34;;;16.64;53.83
59103;BME280;43999;51.660;5.616;2023-06-14T04:06:28;101284.09;;;16.66;53.94
59103;BME280;43999;51.660;5.616;2023-06-14T04:09:00;101289.59;;;16.63;54.46
59103;BME280;43999;51.660;5.616;2023-06-14T04:11:31;101288.44;;;16.67;54.29
59103;BME280;43999;51.660;5.616;2023-06-14T04:13:59;101299.00;;;16.67;53.91
59103;BME280;43999;51.660;5.616;2023-06-14T04:16:27;101290.25;;;16.67;54.72
59103;BME280;43999;51.660;5.616;2023-06-14T04:18:55;101296.25;;;16.69;54.81
59103;BME280;43999;51.660;5.616;2023-06-14T04:21:23;101289.16;;;16.70;54.61
59103;BME280;43999;51.660;5.616;2023-06-14T04:23:52;101297.84;;;16.72;54.33
59103;BME280;43999;51.660;5.616;2023-06-14T04:26:25;101302.91;;;16.75;54.78
59103;BME280;43999;51.660;5.616;2023-06-14T04:28:57;101296.66;;;16.76;54.70
59103;BME280;43999;51.660;5.616;2023-06-14T04:31:31;101295.81;;;16.75;54.96
59103;BME280;43999;51.660;5.616;2023-06-14T04:34:07;101295.47;;;16.80;54.84
59103;BME280;43999;51.660;5.616;2023-06-14T04:36:36;101301.50;;;16.82;54.91
59103;BME280;43999;51.660;5.616;2023-06-14T04:39:08;101295.47;;;16.80;54.64
59103;BME280;43999;51.660;5.616;2023-06-14T04:41:36;101302.06;;;16.87;55.31
59103;BME280;43999;51.660;5.616;2023-06-14T04:44:04;101315.91;;;16.91;54.96
59103;BME280;43999;51.660;5.616;2023-06-14T04:46:37;101315.56;;;16.95;55.63
59103;BME280;43999;51.660;5.616;2023-06-14T04:49:23;101307.50;;;16.97;56.19
59103;BME280;43999;51.660;5.616;2023-06-14T04:51:56;101310.66;;;17.02;55.88
59103;BME280;43999;51.660;5.616;2023-06-14T04:54:34;101304.06;;;17.08;55.34
59103;BME280;43999;51.660;5.616;2023-06-14T04:57:10;101314.09;;;17.15;56.02
59103;BME280;43999;51.660;5.616;2023-06-14T04:59:42;101314.59;;;17.20;56.14
59103;BME280;43999;51.660;5.616;2023-06-14T05:02:11;101312.66;;;17.23;55.81
59103;BME280;43999;51.660;5.616;2023-06-14T05:04:39;101314.34;;;17.24;56.29
59103;BME280;43999;51.660;5.616;2023-06-14T05:07:08;101323.53;;;17.31;55.48
59103;BME280;43999;51.660;5.616;2023-06-14T05:09:36;101332.94;;;17.35;55.67
59103;BME280;43999;51.660;5.616;2023-06-14T05:12:04;101329.94;;;17.39;56.24
59103;BME280;43999;51.660;5.616;2023-06-14T05:14:35;101324.19;;;17.46;55.78
59103;BME280;43999;51.660;5.616;2023-06-14T05:17:04;101334.53;;;17.49;55.60
59103;BME280;43999;51.660;5.616;2023-06-14T05:19:31;101325.53;;;17.51;55.65
59103;BME280;43999;51.660;5.616;2023-06-14T05:21:59;101326.88;;;17.57;56.00
59103;BME280;43999;51.660;5.616;2023-06-14T05:24:26;101337.84;;;17.64;55.74
59103;BME280;43999;51.660;5.616;2023-06-14T05:26:53;101327.72;;;17.69;54.97
59103;BME280;43999;51.660;5.616;2023-06-14T05:29:21;101337.03;;;17.74;56.03
59103;BME280;43999;51.660;5.616;2023-06-14T05:31:49;101336.09;;;17.87;54.80
59103;BME280;43999;51.660;5.616;2023-06-14T05:34:17;101346.50;;;18.01;55.18
59103;BME280;43999;51.660;5.616;2023-06-14T05:36:44;101337.94;;;18.09;54.83
59103;BME280;43999;51.660;5.616;2023-06-14T05:39:11;101345.94;;;18.20;53.53
59103;BME280;43999;51.660;5.616;2023-06-14T05:41:39;101341.69;;;18.29;53.74
59103;BME280;43999;51.660;5.616;2023-06-14T05:44:06;101339.44;;;18.36;53.13
59103;BME280;43999;51.660;5.616;2023-06-14T05:46:34;101347.03;;;18.40;53.32
59103;BME280;43999;51.660;5.616;2023-06-14T05:49:01;101349.44;;;18.43;52.85
59103;BME280;43999;51.660;5.616;2023-06-14T05:51:29;101348.09;;;18.49;52.93
59103;BME280;43999;51.660;5.616;2023-06-14T05:53:56;101350.16;;;18.45;52.73
59103;BME280;43999;51.660;5.616;2023-06-14T05:56:24;101360.50;;;18.49;52.94
59103;BME280;43999;51.660;5.616;2023-06-14T05:58:53;101357.50;;;18.53;52.56
59103;BME280;43999;51.660;5.616;2023-06-14T06:01:26;101364.47;;;18.54;52.99
59103;BME280;43999;51.660;5.616;2023-06-14T06:03:53;101361.34;;;18.60;52.72
59103;BME280;43999;51.660;5.616;2023-06-14T06:06:21;101357.13;;;18.58;52.80
59103;BME280;43999;51.660;5.616;2023-06-14T06:08:48;101364.72;;;18.62;52.60
59103;BME280;43999;51.660;5.616;2023-06-14T06:11:15;101367.84;;;18.68;52.45
59103;BME280;43999;51.660;5.616;2023-06-14T06:13:42;101366.03;;;18.68;52.95
59103;BME280;43999;51.660;5.616;2023-06-14T06:16:10;101366.78;;;18.70;52.38
59103;BME280;43999;51.660;5.616;2023-06-14T06:18:38;101367.94;;;18.77;52.74
59103;BME280;43999;51.660;5.616;2023-06-14T06:21:06;101374.38;;;18.86;53.16
59103;BME280;43999;51.660;5.616;2023-06-14T06:23:33;101376.53;;;18.92;52.77
59103;BME280;43999;51.660;5.616;2023-06-14T06:26:00;101373.38;;;18.98;51.90
59103;BME280;43999;51.660;5.616;2023-06-14T06:28:28;101387.13;;;19.04;51.63
59103;BME280;43999;51.660;5.616;2023-06-14T06:30:55;101381.56;;;19.07;51.99
59103;BME280;43999;51.660;5.616;2023-06-14T06:33:23;101385.66;;;19.11;52.04
59103;BME280;43999;51.660;5.616;2023-06-14T06:35:50;101385.88;;;19.19;52.14
59103;BME280;43999;51.660;5.616;2023-06-14T06:38:17;101394.06;;;19.27;51.39
59103;BME280;43999;51.660;5.616;2023-06-14T06:40:46;101400.69;;;19.33;51.79
59103;BME280;43999;51.660;5.616;2023-06-14T06:43:13;101397.78;;;19.36;52.17
59103;BME280;43999;51.660;5.616;2023-06-14T06:45:45;101402.31;;;19.45;51.79
59103;BME280;43999;51.660;5.616;2023-06-14T06:48:12;101406.88;;;19.55;51.80
59103;BME280;43999;51.660;5.616;2023-06-14T06:50:40;101404.56;;;19.61;50.89
59103;BME280;43999;51.660;5.616;2023-06-14T06:53:07;101407.56;;;19.68;51.31
59103;BME280;43999;51.660;5.616;2023-06-14T06:55:35;101410.53;;;19.75;51.24
59103;BME280;43999;51.660;5.616;2023-06-14T06:58:02;101407.53;;;19.79;51.01
59103;BME280;43999;51.660;5.616;2023-06-14T07:00:32;101412.91;;;19.89;50.84
59103;BME280;43999;51.660;5.616;2023-06-14T07:02:59;101414.78;;;19.98;50.54
59103;BME280;43999;51.660;5.616;2023-06-14T07:05:27;101417.13;;;20.13;50.52
59103;BME280;43999;51.660;5.616;2023-06-14T07:07:54;101417.31;;;20.21;50.17
59103;BME280;43999;51.660;5.616;2023-06-14T07:10:24;101417.34;;;20.31;49.54
59103;BME280;43999;51.660;5.616;2023-06-14T07:12:51;101424.41;;;20.41;49.69
59103;BME280;43999;51.660;5.616;2023-06-14T07:15:19;101426.41;;;20.49;49.24
59103;BME280;43999;51.660;5.616;2023-06-14T07:17:46;101422.25;;;20.56;48.95
59103;BME280;43999;51.660;5.616;2023-06-14T07:20:14;101427.03;;;20.63;48.18
59103;BME280;43999;51.660;5.616;2023-06-14T07:22:43;101432.69;;;20.69;48.43
59103;BME280;43999;51.660;5.616;2023-06-14T07:25:11;101434.41;;;20.80;48.47
59103;BME280;43999;51.660;5.616;2023-06-14T07:27:43;101432.34;;;20.93;48.09
59103;BME280;43999;51.660;5.616;2023-06-14T07:30:11;101434.34;;;21.11;46.68
59103;BME280;43999;51.660;5.616;2023-06-14T07:32:38;101433.81;;;21.27;45.50
59103;BME280;43999;51.660;5.616;2023-06-14T07:35:07;101432.44;;;21.33;45.85
59103;BME280;43999;51.660;5.616;2023-06-14T07:37:34;101434.41;;;21.40;46.02
59103;BME280;43999;51.660;5.616;2023-06-14T07:40:04;101435.53;;;21.47;46.31
59103;BME280;43999;51.660;5.616;2023-06-14T07:42:34;101438.91;;;21.59;46.14
59103;BME280;43999;51.660;5.616;2023-06-14T07:45:04;101440.47;;;21.72;44.95
59103;BME280;43999;51.660;5.616;2023-06-14T07:47:33;101442.13;;;21.82;44.31
59103;BME280;43999;51.660;5.616;2023-06-14T07:50:01;101448.72;;;21.98;42.54
59103;BME280;43999;51.660;5.616;2023-06-14T07:52:28;101448.88;;;22.06;42.91
59103;BME280;43999;51.660;5.616;2023-06-14T07:54:55;101462.47;;;22.13;42.17
59103;BME280;43999;51.660;5.616;2023-06-14T07:57:23;101449.38;;;22.19;42.13
59103;BME280;43999;51.660;5.616;2023-06-14T07:59:51;101456.81;;;22.26;41.98
59103;BME280;43999;51.660;5.616;2023-06-14T08:02:18;101468.06;;;22.39;41.61
59103;BME280;43999;51.660;5.616;2023-06-14T08:04:45;101454.78;;;22.57;42.11
59103;BME280;43999;51.660;5.616;2023-06-14T08:07:15;101462.19;;;23.01;41.18
59103;BME280;43999;51.660;5.616;2023-06-14T08:09:42;101463.75;;;23.49;39.07
59103;BME280;43999;51.660;5.616;2023-06-14T08:12:10;101461.13;;;23.93;38.98
59103;BME280;43999;51.660;5.616;2023-06-14T08:14:39;101467.13;;;24.40;38.63
59103;BME280;43999;51.660;5.616;2023-06-14T08:17:06;101464.28;;;25.02;37.31
59103;BME280;43999;51.660;5.616;2023-06-14T08:19:34;101457.34;;;25.42;36.58
59103;BME280;43999;51.660;5.616;2023-06-14T08:22:01;101463.44;;;25.69;35.89
59103;BME280;43999;51.660;5.616;2023-06-14T08:24:30;101459.75;;;26.11;34.32
59103;BME280;43999;51.660;5.616;2023-06-14T08:26:58;101466.91;;;26.35;33.23
59103;BME280;43999;51.660;5.616;2023-06-14T08:29:27;101465.53;;;26.47;32.02
59103;BME280;43999;51.660;5.616;2023-06-14T08:31:59;101466.16;;;26.74;31.72
59103;BME280;43999;51.660;5.616;2023-06-14T08:34:27;101466.75;;;26.84;31.04
59103;BME280;43999;51.660;5.616;2023-06-14T08:36:54;101470.72;;;27.05;30.76
59103;BME280;43999;51.660;5.616;2023-06-14T08:39:22;101468.59;;;27.24;29.37
59103;BME280;43999;51.660;5.616;2023-06-14T08:41:50;101464.81;;;27.41;29.64
59103;BME280;43999;51.660;5.616;2023-06-14T08:44:19;101464.53;;;27.59;28.92
59103;BME280;43999;51.660;5.616;2023-06-14T08:46:48;101456.19;;;27.69;28.35
59103;BME280;43999;51.660;5.616;2023-06-14T08:49:17;101466.16;;;27.83;27.73
59103;BME280;43999;51.660;5.616;2023-06-14T08:51:44;101456.81;;;27.94;27.82
59103;BME280;43999;51.660;5.616;2023-06-14T08:54:14;101460.56;;;28.08;27.79
59103;BME280;43999;51.660;5.616;2023-06-14T08:56:42;101454.19;;;28.39;27.58
59103;BME280;43999;51.660;5.616;2023-06-14T08:59:11;101461.75;;;28.58;26.08
59103;BME280;43999;51.660;5.616;2023-06-14T09:01:39;101463.91;;;28.63;25.55
59103;BME280;43999;51.660;5.616;2023-06-14T09:04:22;101453.94;;;28.64;25.34
59103;BME280;43999;51.660;5.616;2023-06-14T09:06:56;101462.41;;;28.75;25.02
59103;BME280;43999;51.660;5.616;2023-06-14T09:09:25;101463.50;;;28.81;24.45
59103;BME280;43999;51.660;5.616;2023-06-14T09:11:55;101459.66;;;28.90;24.79
59103;BME280;43999;51.660;5.616;2023-06-14T09:14:24;101464.94;;;28.98;24.44
59103;BME280;43999;51.660;5.616;2023-06-14T09:16:55;101466.81;;;28.98;25.57
59103;BME280;43999;51.660;5.616;2023-06-14T09:19:24;101469.28;;;29.14;23.20
59103;BME280;43999;51.660;5.616;2023-06-14T09:21:53;101462.13;;;29.22;24.22
59103;BME280;43999;51.660;5.616;2023-06-14T09:24:20;101469.81;;;29.25;24.09
59103;BME280;43999;51.660;5.616;2023-06-14T09:26:47;101464.97;;;29.35;24.00
59103;BME280;43999;51.660;5.616;2023-06-14T09:29:17;101467.59;;;29.28;24.46
59103;BME280;43999;51.660;5.616;2023-06-14T09:31:48;101467.84;;;29.33;25.25
59103;BME280;43999;51.660;5.616;2023-06-14T09:34:16;101475.81;;;29.63;25.13
59103;BME280;43999;51.660;5.616;2023-06-14T09:36:46;101468.44;;;29.94;23.55
59103;BME280;43999;51.660;5.616;2023-06-14T09:39:17;101466.44;;;30.02;23.72
59103;BME280;43999;51.660;5.616;2023-06-14T09:41:45;101470.34;;;30.00;23.10
59103;BME280;43999;51.660;5.616;2023-06-14T09:44:13;101468.03;;;29.97;23.25
59103;BME280;43999;51.660;5.616;2023-06-14T09:46:48;101472.94;;;29.86;23.65
59103;BME280;43999;51.660;5.616;2023-06-14T09:49:16;101470.91;;;29.89;23.44
59103;BME280;43999;51.660;5.616;2023-06-14T09:51:45;101477.13;;;29.89;23.93
59103;BME280;43999;51.660;5.616;2023-06-14T09:54:22;101468.00;;;29.90;23.33
59103;BME280;43999;51.660;5.616;2023-06-14T09:56:53;101475.19;;;29.83;24.02
59103;BME280;43999;51.660;5.616;2023-06-14T10:02:00;101471.53;;;29.91;23.02
59103;BME280;43999;51.660;5.616;2023-06-14T10:04:41;101467.41;;;29.95;24.20
59103;BME280;43999;51.660;5.616;2023-06-14T10:07:19;101467.69;;;30.07;24.13
59103;BME280;43999;51.660;5.616;2023-06-14T10:09:48;101469.59;;;30.13;23.49
59103;BME280;43999;51.660;5.616;2023-06-14T10:12:17;101465.09;;;30.20;23.49
59103;BME280;43999;51.660;5.616;2023-06-14T10:14:50;101459.53;;;30.35;23.73
59103;BME280;43999;51.660;5.616;2023-06-14T10:20:34;101456.63;;;30.65;23.09
59103;BME280;43999;51.660;5.616;2023-06-14T10:23:17;101462.72;;;30.80;22.55
59103;BME280;43999;51.660;5.616;2023-06-14T10:25:56;101458.94;;;30.68;22.82
59103;BME280;43999;51.660;5.616;2023-06-14T10:28:24;101450.84;;;30.74;23.10
59103;BME280;43999;51.660;5.616;2023-06-14T10:31:11;101459.63;;;30.83;22.48
59103;BME280;43999;51.660;5.616;2023-06-14T10:36:27;101463.56;;;30.81;21.75
59103;BME280;43999;51.660;5.616;2023-06-14T10:39:00;101457.88;;;30.69;21.91
59103;BME280;43999;51.660;5.616;2023-06-14T10:41:35;101467.06;;;30.68;22.14
59103;BME280;43999;51.660;5.616;2023-06-14T10:46:49;101461.38;;;30.63;22.87
59103;BME280;43999;51.660;5.616;2023-06-14T10:49:20;101475.38;;;30.73;23.41
59103;BME280;43999;51.660;5.616;2023-06-14T10:52:15;101469.78;;;30.81;22.98
59103;BME280;43999;51.660;5.616;2023-06-14T10:55:10;101467.13;;;30.88;23.11
59103;BME280;43999;51.660;5.616;2023-06-14T10:57:54;101465.66;;;30.85;23.37
59103;BME280;43999;51.660;5.616;2023-06-14T11:00:29;101449.63;;;30.90;22.69
59103;BME280;43999;51.660;5.616;2023-06-14T11:03:50;101457.53;;;30.85;23.18
59103;BME280;43999;51.660;5.616;2023-06-14T11:06:22;101460.97;;;30.66;22.98
59103;BME280;43999;51.660;5.616;2023-06-14T11:12:28;101461.53;;;30.48;23.52
59103;BME280;43999;51.660;5.616;2023-06-14T11:14:59;101461.28;;;30.43;23.93
59103;BME280;43999;51.660;5.616;2023-06-14T11:17:27;101466.28;;;30.46;24.49
59103;BME280;43999;51.660;5.616;2023-06-14T11:20:11;101464.28;;;30.61;24.02
59103;BME280;43999;51.660;5.616;2023-06-14T11:22:47;101455.66;;;30.79;24.54
59103;BME280;43999;51.660;5.616;2023-06-14T11:25:15;101469.06;;;31.01;24.49
59103;BME280;43999;51.660;5.616;2023-06-14T11:27:43;101462.44;;;31.17;24.38
59103;BME280;43999;51.660;5.616;2023-06-14T11:30:13;101458.50;;;31.19;23.79
59103;BME280;43999;51.660;5.616;2023-06-14T11:32:40;101458.66;;;31.04;23.75
59103;BME280;43999;51.660;5.616;2023-06-14T11:35:08;101453.34;;;30.83;23.94
59103;BME280;43999;51.660;5.616;2023-06-14T11:37:36;101456.97;;;30.48;24.27
59103;BME280;43999;51.660;5.616;2023-06-14T11:40:07;101443.69;;;30.25;24.79
59103;BME280;43999;51.660;5.616;2023-06-14T11:42:37;101450.28;;;30.16;24.74
59103;BME280;43999;51.660;5.616;2023-06-14T11:45:11;101454.56;;;30.03;24.84
59103;BME280;43999;51.660;5.616;2023-06-14T11:47:39;101450.22;;;30.02;25.05
59103;BME280;43999;51.660;5.616;2023-06-14T11:50:09;101438.50;;;29.95;24.82
59103;BME280;43999;51.660;5.616;2023-06-14T11:52:37;101437.78;;;29.80;25.13
59103;BME280;43999;51.660;5.616;2023-06-14T11:55:06;101441.19;;;29.67;25.52
59103;BME280;43999;51.660;5.616;2023-06-14T11:57:36;101446.41;;;29.47;25.91
59103;BME280;43999;51.660;5.616;2023-06-14T12:00:09;101448.31;;;29.31;25.60
59103;BME280;43999;51.660;5.616;2023-06-14T12:02:39;101444.44;;;29.19;25.64
59103;BME280;43999;51.660;5.616;2023-06-14T12:05:09;101438.56;;;29.15;26.48
59103;BME280;43999;51.660;5.616;2023-06-14T12:07:37;101444.28;;;29.06;25.49
59103;BME280;43999;51.660;5.616;2023-06-14T12:10:09;101444.03;;;29.01;25.28
59103;BME280;43999;51.660;5.616;2023-06-14T12:12:39;101445.72;;;28.87;24.84
59103;BME280;43999;51.660;5.616;2023-06-14T12:15:09;101444.91;;;28.71;25.86
59103;BME280;43999;51.660;5.616;2023-06-14T12:17:42;101452.94;;;28.65;25.44
59103;BME280;43999;51.660;5.616;2023-06-14T12:20:14;101449.09;;;28.59;25.32
59103;BME280;43999;51.660;5.616;2023-06-14T12:22:58;101444.06;;;28.56;25.15
59103;BME280;43999;51.660;5.616;2023-06-14T12:25:33;101440.91;;;28.52;24.86
59103;BME280;43999;51.660;5.616;2023-06-14T12:28:09;101447.06;;;28.46;25.67
59103;BME280;43999;51.660;5.616;2023-06-14T12:30:38;101449.06;;;28.44;24.86
59103;BME280;43999;51.660;5.616;2023-06-14T12:33:05;101455.88;;;28.40;24.94
59103;BME280;43999;51.660;5.616;2023-06-14T12:35:34;101446.38;;;28.44;25.57
59103;BME280;43999;51.660;5.616;2023-06-14T12:38:02;101446.75;;;28.56;25.13
59103;BME280;43999;51.660;5.616;2023-06-14T12:40:30;101439.50;;;28.56;25.53
59103;BME280;43999;51.660;5.616;2023-06-14T12:42:58;101446.56;;;28.57;25.11
59103;BME280;43999;51.660;5.616;2023-06-14T12:45:25;101447.06;;;28.61;25.25
59103;BME280;43999;51.660;5.616;2023-06-14T12:47:53;101438.59;;;28.64;24.80
59103;BME280;43999;51.660;5.616;2023-06-14T12:50:21;101463.59;;;28.73;25.33
59103;BME280;43999;51.660;5.616;2023-06-14T12:52:52;101443.91;;;28.72;25.10
59103;BME280;43999;51.660;5.616;2023-06-14T12:55:19;101442.97;;;28.80;24.60
59103;BME280;43999;51.660;5.616;2023-06-14T12:57:47;101454.25;;;29.05;25.24
59103;BME280;43999;51.660;5.616;2023-06-14T13:00:17;101453.59;;;29.40;24.96
59103;BME280;43999;51.660;5.616;2023-06-14T13:02:45;101451.06;;;29.60;24.91
59103;BME280;43999;51.660;5.616;2023-06-14T13:05:12;101456.72;;;29.86;24.06
59103;BME280;43999;51.660;5.616;2023-06-14T13:07:40;101448.44;;;29.88;24.37
59103;BME280;43999;51.660;5.616;2023-06-14T13:10:07;101458.91;;;29.98;23.34
59103;BME280;43999;51.660;5.616;2023-06-14T13:12:35;101456.69;;;30.08;23.92
59103;BME280;43999;51.660;5.616;2023-06-14T13:15:02;101451.63;;;30.33;24.04
59103;BME280;43999;51.660;5.616;2023-06-14T13:17:30;101451.38;;;30.56;23.87
59103;BME280;43999;51.660;5.616;2023-06-14T13:20:00;101457.06;;;30.75;23.93